KRCA

Ellsworth AFB Airport

Rapid City, South Dakota, USA
METAR KRCA 230456Z AUTO 00000KT 10SM CLR 07/M03 A3029 RMK AO2 SLP264 T00681032 $
Observed Flight Rules
Oct-23 @ 04:56 UTC (21 minutes ago) Visual Flight Rules
Visibility Clouds
10 miles
  • Clear skies
Temperatures Readings
Current 7°C / 45°F
Dewpoint -3°C / 27°F
Humidity 49%
Altimeter 30.29" Hg
Pressure 1026.4 hPa
Elevation 999
METAR KRCA 230456Z AUTO 00000KT 10SM CLR 07/M03 A3029 RMK AO2 SLP264 T00681032 $
Observed Flight Rules
Oct-23 @ 04:56 UTC
(21 minutes ago)
VFR
Clouds
  • Clear skies
Temperature Dewpoint
7°C / 45°F -3°C / 27°F
Humidity Altimeter Pressure
49% 30.29" Hg 1026.4 hPa